createdAt,value
2019-03-08T00:02:32.891Z,32.94
2019-03-08T00:05:36.399Z,32.92
2019-03-08T00:08:39.928Z,32.91
2019-03-08T00:11:43.405Z,32.92
2019-03-08T00:14:46.938Z,32.89
2019-03-08T00:17:50.418Z,32.92
2019-03-08T00:20:53.917Z,32.90
2019-03-08T00:23:57.473Z,32.92
2019-03-08T00:27:01.130Z,32.93
2019-03-08T00:30:05.841Z,32.92
2019-03-08T00:33:09.341Z,32.93
2019-03-08T00:36:12.851Z,32.93
2019-03-08T00:39:16.335Z,32.95
2019-03-08T00:42:19.875Z,32.94
2019-03-08T00:45:23.353Z,32.90
2019-03-08T00:48:26.889Z,32.92
2019-03-08T00:51:30.359Z,32.93
2019-03-08T00:54:33.899Z,32.93
2019-03-08T00:57:37.312Z,32.94
2019-03-08T01:00:41.148Z,32.94
2019-03-08T01:03:44.754Z,32.91
2019-03-08T01:06:48.271Z,32.90
2019-03-08T01:09:51.970Z,32.91
2019-03-08T01:12:55.466Z,32.92
2019-03-08T01:15:58.966Z,32.86
2019-03-08T01:19:02.562Z,32.86
2019-03-08T01:22:06.172Z,32.85
2019-03-08T01:25:09.848Z,32.88
2019-03-08T01:28:14.331Z,32.79
2019-03-08T01:31:18.938Z,32.80
2019-03-08T01:34:22.421Z,32.69
2019-03-08T01:37:25.930Z,32.70
2019-03-08T01:40:29.440Z,32.75
2019-03-08T01:43:32.921Z,32.76
2019-03-08T01:46:36.451Z,32.76
2019-03-08T01:49:40.013Z,32.74
2019-03-08T01:52:43.436Z,32.76
2019-03-08T01:55:47.990Z,32.73
2019-03-08T01:58:51.474Z,32.79
2019-03-08T02:01:56.027Z,32.60
2019-03-08T02:04:59.460Z,32.66
2019-03-08T02:08:08.795Z,32.72
2019-03-08T02:11:12.463Z,32.69
2019-03-08T02:14:16.961Z,32.75
2019-03-08T02:17:20.658Z,32.78
2019-03-08T02:20:24.158Z,32.73
2019-03-08T02:23:27.660Z,32.77
2019-03-08T02:26:32.177Z,32.78
2019-03-08T02:29:36.710Z,32.71
2019-03-08T02:32:43.319Z,32.76
2019-03-08T02:35:46.802Z,32.74
2019-03-08T02:38:51.372Z,32.65
2019-03-08T02:41:54.824Z,32.72
2019-03-08T02:44:58.333Z,32.60
2019-03-08T02:48:01.814Z,32.58
2019-03-08T02:51:07.401Z,32.57
2019-03-08T02:54:10.858Z,32.57
2019-03-08T02:57:14.699Z,32.59
2019-03-08T03:00:20.382Z,32.60
2019-03-08T03:03:25.869Z,32.56
2019-03-08T03:06:29.332Z,32.53
2019-03-08T03:09:33.908Z,32.46
2019-03-08T03:12:37.462Z,32.52
2019-03-08T03:15:43.056Z,32.50
2019-03-08T03:18:46.553Z,32.65
2019-03-08T03:21:50.147Z,32.51
2019-03-08T03:24:53.699Z,32.58
2019-03-08T03:27:57.178Z,32.27
2019-03-08T03:31:00.693Z,32.31
2019-03-08T03:34:04.156Z,32.55
2019-03-08T03:37:07.659Z,32.32
2019-03-08T03:40:11.529Z,32.32
2019-03-08T03:43:16.163Z,32.33
2019-03-08T03:46:19.848Z,32.28
2019-03-08T03:49:29.248Z,32.33
2019-03-08T03:52:32.741Z,32.41
2019-03-08T03:55:37.247Z,32.44
2019-03-08T03:58:40.795Z,32.47
2019-03-08T04:01:48.063Z,32.46
2019-03-08T04:04:51.661Z,32.50
2019-03-08T04:07:55.173Z,32.51
2019-03-08T04:10:58.730Z,32.54
2019-03-08T04:14:02.207Z,32.50
2019-03-08T04:17:06.810Z,32.45
2019-03-08T04:20:11.795Z,32.46
2019-03-08T04:23:15.330Z,32.51
2019-03-08T04:26:18.824Z,32.52
2019-03-08T04:29:23.410Z,32.41
2019-03-08T04:32:27.881Z,32.43
2019-03-08T04:35:31.483Z,32.43
2019-03-08T04:38:35.228Z,32.45
2019-03-08T04:41:38.824Z,32.50
2019-03-08T04:44:43.577Z,32.43
2019-03-08T04:47:47.029Z,32.50
2019-03-08T04:50:50.514Z,32.45
2019-03-08T04:53:55.057Z,32.46
2019-03-08T04:56:58.582Z,32.39
2019-03-08T05:00:02.073Z,32.42
2019-03-08T05:03:05.573Z,32.56
2019-03-08T05:06:09.075Z,32.34
2019-03-08T05:09:12.578Z,32.27
2019-03-08T05:12:16.058Z,32.36
2019-03-08T05:15:19.546Z,32.30
2019-03-08T05:18:23.057Z,32.47
2019-03-08T05:21:26.574Z,32.26
2019-03-08T05:24:31.089Z,32.24
2019-03-08T05:27:35.601Z,32.26
2019-03-08T05:30:39.136Z,32.33
2019-03-08T05:33:44.660Z,32.36
2019-03-08T05:36:48.166Z,32.31
2019-03-08T05:39:51.650Z,32.38
2019-03-08T05:42:55.162Z,32.33
2019-03-08T05:45:58.722Z,32.32
2019-03-08T05:49:02.152Z,32.36
2019-03-08T05:52:05.933Z,32.27
2019-03-08T05:55:09.413Z,32.36
2019-03-08T05:58:12.884Z,32.32
2019-03-08T06:01:32.539Z,32.33
2019-03-08T06:04:37.080Z,32.34
2019-03-08T06:07:40.534Z,32.39
2019-03-08T06:10:44.020Z,32.33
2019-03-08T06:13:47.709Z,32.37
2019-03-08T06:16:51.170Z,32.19
2019-03-08T06:19:55.596Z,32.31
2019-03-08T06:23:01.170Z,32.35
2019-03-08T06:26:04.663Z,32.30
2019-03-08T06:29:08.164Z,32.27
2019-03-08T06:32:11.598Z,32.23
2019-03-08T06:35:15.056Z,32.28
2019-03-08T06:38:18.680Z,32.31
2019-03-08T06:41:22.164Z,32.32
2019-03-08T06:44:25.661Z,32.37
2019-03-08T06:47:30.163Z,32.39
2019-03-08T06:50:33.596Z,32.32
2019-03-08T06:53:37.119Z,32.31
2019-03-08T06:56:40.649Z,32.35
2019-03-08T06:59:51.581Z,32.45
2019-03-08T07:02:55.174Z,32.21
2019-03-08T07:05:59.802Z,32.23
2019-03-08T07:09:04.111Z,32.22
2019-03-08T07:12:07.611Z,32.24
2019-03-08T07:15:11.110Z,32.27
2019-03-08T07:18:14.615Z,32.31
2019-03-08T07:21:43.027Z,32.27
2019-03-08T07:24:53.705Z,32.18
2019-03-08T07:28:22.065Z,32.19
2019-03-08T07:31:40.308Z,32.29
2019-03-08T07:34:55.778Z,32.14
2019-03-08T07:38:17.078Z,32.00
2019-03-08T07:41:34.257Z,32.09
2019-03-08T07:44:48.865Z,32.10
2019-03-08T07:48:11.540Z,32.11
2019-03-08T07:51:29.443Z,32.05
2019-03-08T07:55:07.266Z,32.65
2019-03-08T07:58:20.400Z,32.77
2019-03-08T08:01:35.363Z,32.83
2019-03-08T08:05:10.272Z,32.91
2019-03-08T08:08:21.264Z,32.92
2019-03-08T08:11:33.002Z,32.90
2019-03-08T08:14:55.676Z,32.86
2019-03-08T08:18:17.038Z,32.82
2019-03-08T08:21:38.279Z,32.84
2019-03-08T08:25:06.333Z,32.80
2019-03-08T08:28:50.097Z,32.64
2019-03-08T08:32:05.047Z,32.62
2019-03-08T08:35:23.607Z,32.57
2019-03-08T08:38:45.232Z,32.62
2019-03-08T08:41:55.305Z,32.75
2019-03-08T08:45:33.269Z,32.72
2019-03-08T08:48:43.870Z,32.71
2019-03-08T08:52:13.578Z,32.62
2019-03-08T08:55:34.591Z,32.63
2019-03-08T08:58:45.903Z,32.64
2019-03-08T09:02:11.419Z,32.61
2019-03-08T09:05:34.083Z,32.55
2019-03-08T09:09:08.818Z,32.55
2019-03-08T09:12:25.786Z,32.66
2019-03-08T09:15:33.933Z,32.60
2019-03-08T09:19:00.938Z,32.64
2019-03-08T09:22:16.335Z,32.59
2019-03-08T09:25:27.196Z,32.59
2019-03-08T09:28:52.919Z,32.55
2019-03-08T09:32:07.689Z,32.55
2019-03-08T09:35:31.250Z,32.50
2019-03-08T09:38:49.702Z,32.46
2019-03-08T09:42:19.928Z,32.43
2019-03-08T09:45:47.270Z,32.51
2019-03-08T09:49:07.289Z,32.35
2019-03-08T09:52:21.854Z,32.31
2019-03-08T09:55:30.164Z,32.18
2019-03-08T09:58:59.555Z,32.07
2019-03-08T10:02:09.542Z,32.05
2019-03-08T10:05:27.181Z,32.04
2019-03-08T10:08:41.014Z,31.93
2019-03-08T10:11:58.323Z,31.93
2019-03-08T10:15:19.664Z,31.85
2019-03-08T10:18:33.216Z,31.93
2019-03-08T10:21:48.563Z,31.86
2019-03-08T10:25:11.623Z,31.88
2019-03-08T10:28:49.552Z,31.84
2019-03-08T10:32:12.040Z,32.33
2019-03-08T10:35:33.414Z,32.58
2019-03-08T10:38:43.038Z,32.50
2019-03-08T10:42:14.283Z,32.51
2019-03-08T10:45:33.971Z,32.54
2019-03-08T10:48:47.618Z,32.54
2019-03-08T10:52:17.367Z,32.51
2019-03-08T10:55:33.665Z,32.55
2019-03-08T10:58:55.223Z,32.47
2019-03-08T11:02:05.715Z,32.51
2019-03-08T11:05:32.272Z,32.46
2019-03-08T11:08:41.988Z,32.46
2019-03-08T11:12:04.825Z,32.39
2019-03-08T11:15:28.545Z,32.27
2019-03-08T11:18:53.426Z,32.18
2019-03-08T11:22:34.387Z,32.09
2019-03-08T11:25:55.311Z,32.06
2019-03-08T11:29:22.772Z,32.02
2019-03-08T11:32:36.729Z,31.82
2019-03-08T11:35:46.189Z,31.90
2019-03-08T11:39:09.747Z,31.80
2019-03-08T11:42:35.339Z,31.74
2019-03-08T11:45:51.257Z,32.08
2019-03-08T11:49:04.899Z,32.38
2019-03-08T11:52:28.175Z,32.33
2019-03-08T11:55:41.290Z,32.42
2019-03-08T11:59:03.259Z,32.48
2019-03-08T12:02:25.080Z,32.49
2019-03-08T12:05:47.576Z,32.57
2019-03-08T12:09:02.818Z,32.58
2019-03-08T12:12:35.319Z,32.59
2019-03-08T12:15:57.899Z,32.63
2019-03-08T12:19:06.514Z,32.63
2019-03-08T12:22:27.640Z,32.45
2019-03-08T12:25:40.968Z,32.38
2019-03-08T12:29:12.632Z,32.33
2019-03-08T12:32:34.211Z,32.29
2019-03-08T12:35:47.193Z,32.22
2019-03-08T12:39:07.667Z,32.16
2019-03-08T12:42:36.015Z,32.11
2019-03-08T12:46:01.468Z,32.08
2019-03-08T12:49:23.035Z,32.11
2019-03-08T12:52:47.395Z,32.09
2019-03-08T12:56:06.074Z,32.10
2019-03-08T12:59:19.093Z,32.11
2019-03-08T13:02:43.648Z,32.57
2019-03-08T13:06:06.208Z,32.64
2019-03-08T13:09:23.202Z,32.70
2019-03-08T13:12:26.721Z,32.70
2019-03-08T13:15:31.225Z,32.70
2019-03-08T13:18:34.721Z,32.66
2019-03-08T13:21:38.231Z,32.72
2019-03-08T13:24:41.747Z,32.70
2019-03-08T13:27:45.253Z,32.67
2019-03-08T13:30:51.820Z,32.69
2019-03-08T13:33:55.511Z,32.71
2019-03-08T13:36:59.027Z,32.70
2019-03-08T13:40:02.643Z,32.69
2019-03-08T13:43:06.250Z,32.68
2019-03-08T13:46:09.731Z,32.65
2019-03-08T13:49:15.283Z,32.70
2019-03-08T13:52:23.075Z,32.70
2019-03-08T13:55:26.599Z,32.69
2019-03-08T13:58:30.086Z,32.69
2019-03-08T14:01:35.602Z,32.71
2019-03-08T14:04:40.150Z,32.71
2019-03-08T14:07:43.704Z,32.66
2019-03-08T14:10:47.169Z,32.68
2019-03-08T14:13:50.661Z,32.64
2019-03-08T14:16:54.171Z,32.64
2019-03-08T14:19:57.664Z,32.64
2019-03-08T14:23:02.384Z,32.58
2019-03-08T14:26:06.035Z,32.48
2019-03-08T14:29:11.379Z,32.39
2019-03-08T14:32:21.111Z,32.37
2019-03-08T14:35:26.110Z,32.33
2019-03-08T14:38:36.910Z,32.31
2019-03-08T14:41:44.850Z,32.23
2019-03-08T14:44:57.227Z,32.23
2019-03-08T14:48:01.453Z,32.24
2019-03-08T14:51:09.430Z,32.20
2019-03-08T14:54:12.235Z,32.17
2019-03-08T14:57:26.896Z,32.15
2019-03-08T15:00:25.369Z,32.15
2019-03-08T15:03:43.012Z,32.20
2019-03-08T15:06:38.719Z,32.20
2019-03-08T15:09:43.443Z,32.12
2019-03-08T15:12:49.068Z,32.12
2019-03-08T15:15:52.126Z,32.11
2019-03-08T15:18:56.608Z,32.26
2019-03-08T15:22:00.101Z,32.43
2019-03-08T15:25:08.344Z,32.61
2019-03-08T15:28:11.620Z,32.68
2019-03-08T15:31:15.127Z,32.72
2019-03-08T15:34:21.352Z,32.77
2019-03-08T15:37:24.787Z,32.79
2019-03-08T15:40:28.302Z,32.75
2019-03-08T15:43:31.794Z,32.76
2019-03-08T15:46:35.295Z,32.72
2019-03-08T15:49:50.074Z,32.82
2019-03-08T15:52:53.753Z,32.83
2019-03-08T15:55:57.284Z,32.85
2019-03-08T15:59:03.440Z,32.83
2019-03-08T16:02:08.927Z,32.88
2019-03-08T16:05:13.661Z,32.87
2019-03-08T16:08:17.223Z,32.94
2019-03-08T16:11:20.713Z,32.90
2019-03-08T16:14:24.207Z,32.97
2019-03-08T16:17:27.723Z,32.96
2019-03-08T16:20:31.216Z,32.93
2019-03-08T16:23:34.716Z,32.97
2019-03-08T16:26:38.445Z,32.94
2019-03-08T16:29:43.842Z,32.86
2019-03-08T16:33:04.822Z,32.84
2019-03-08T16:36:27.820Z,32.75
2019-03-08T16:39:53.229Z,32.97
2019-03-08T16:43:14.627Z,33.11
2019-03-08T16:46:24.731Z,33.10
2019-03-08T16:49:48.175Z,33.12
2019-03-08T16:52:57.963Z,33.16
2019-03-08T16:56:31.506Z,33.14
2019-03-08T16:59:52.984Z,33.12
2019-03-08T17:03:06.936Z,33.18
2019-03-08T17:06:35.885Z,33.17
2019-03-08T17:10:13.610Z,33.17
2019-03-08T17:13:28.609Z,33.28
2019-03-08T17:16:54.277Z,33.48
2019-03-08T17:20:11.576Z,33.31
2019-03-08T17:23:44.132Z,33.17
2019-03-08T17:26:58.461Z,33.12
2019-03-08T17:30:14.564Z,33.09
2019-03-08T17:33:51.493Z,33.09
2019-03-08T17:37:12.252Z,33.04
2019-03-08T17:40:27.952Z,32.99
2019-03-08T17:43:41.795Z,32.97
2019-03-08T17:46:59.341Z,32.95
2019-03-08T17:50:15.973Z,33.39
2019-03-08T17:53:37.664Z,33.66
2019-03-08T17:57:02.779Z,33.66
2019-03-08T18:00:23.729Z,33.59
2019-03-08T18:04:01.587Z,33.59
2019-03-08T18:07:16.676Z,33.57
2019-03-08T18:10:34.803Z,33.64
2019-03-08T18:13:49.273Z,33.67
2019-03-08T18:17:24.164Z,33.64
2019-03-08T18:20:40.818Z,33.63
2019-03-08T18:23:57.225Z,33.71
2019-03-08T18:27:20.898Z,33.68
2019-03-08T18:30:58.928Z,33.66
2019-03-08T18:34:20.069Z,33.63
2019-03-08T18:37:41.543Z,33.58
2019-03-08T18:40:59.582Z,33.59
2019-03-08T18:44:13.120Z,33.59
2019-03-08T18:47:26.259Z,33.63
2019-03-08T18:50:41.725Z,33.56
2019-03-08T18:54:04.377Z,33.57
2019-03-08T18:57:19.055Z,33.65
2019-03-08T19:00:45.418Z,33.59
2019-03-08T19:04:06.498Z,33.59
2019-03-08T19:07:26.988Z,33.56
2019-03-08T19:10:42.988Z,33.58
2019-03-08T19:13:54.082Z,33.58
2019-03-08T19:17:22.823Z,33.64
2019-03-08T19:20:47.193Z,33.65
2019-03-08T19:24:05.050Z,33.61
2019-03-08T19:27:25.725Z,33.59
2019-03-08T19:30:38.289Z,33.60
2019-03-08T19:33:52.349Z,33.61
2019-03-08T19:37:12.343Z,33.64
2019-03-08T19:40:23.935Z,33.60
2019-03-08T19:43:41.591Z,33.58
2019-03-08T19:47:03.173Z,33.58
2019-03-08T19:50:25.480Z,33.58
2019-03-08T19:53:47.331Z,33.58
2019-03-08T19:57:09.921Z,33.56
2019-03-08T20:00:25.459Z,33.57
2019-03-08T20:03:34.706Z,33.59
2019-03-08T20:06:55.804Z,33.57
2019-03-08T20:10:27.469Z,33.61
2019-03-08T20:14:05.244Z,33.64
2019-03-08T20:17:27.613Z,33.61
2019-03-08T20:20:49.132Z,33.63
2019-03-08T20:24:14.581Z,33.62
2019-03-08T20:27:44.636Z,33.70
2019-03-08T20:31:00.765Z,33.65
2019-03-08T20:34:17.033Z,33.69
2019-03-08T20:37:51.721Z,33.64
2019-03-08T20:41:12.987Z,33.62
2019-03-08T20:44:27.320Z,33.65
2019-03-08T20:47:32.364Z,33.46
2019-03-08T20:50:36.246Z,33.45
2019-03-08T20:53:39.750Z,33.37
2019-03-08T20:56:43.251Z,33.38
2019-03-08T20:59:47.794Z,33.34
2019-03-08T21:02:51.261Z,33.33
2019-03-08T21:05:54.663Z,33.33
2019-03-08T21:08:58.270Z,33.31
2019-03-08T21:12:01.786Z,33.28
2019-03-08T21:15:07.247Z,33.25
2019-03-08T21:18:10.847Z,33.23
2019-03-08T21:21:14.260Z,33.25
2019-03-08T21:24:17.735Z,33.23
2019-03-08T21:27:21.334Z,33.23
2019-03-08T21:30:24.974Z,33.22
2019-03-08T21:33:28.533Z,33.23
2019-03-08T21:36:32.038Z,33.17
2019-03-08T21:39:35.563Z,33.21
2019-03-08T21:42:41.103Z,33.21
2019-03-08T21:45:44.592Z,33.23
2019-03-08T21:48:48.109Z,33.20
2019-03-08T21:51:51.593Z,33.19
2019-03-08T21:54:55.111Z,33.20
2019-03-08T21:57:58.578Z,33.20
2019-03-08T22:01:02.219Z,33.17
2019-03-08T22:04:14.505Z,33.20
2019-03-08T22:07:17.919Z,33.18
2019-03-08T22:10:38.385Z,33.18
2019-03-08T22:13:41.816Z,33.18
2019-03-08T22:16:45.399Z,33.17
2019-03-08T22:19:48.925Z,33.17
2019-03-08T22:22:52.424Z,33.17
2019-03-08T22:25:56.306Z,33.18
2019-03-08T22:29:00.829Z,33.21
2019-03-08T22:32:04.235Z,33.18
2019-03-08T22:35:07.856Z,33.15
2019-03-08T22:38:11.381Z,33.16
2019-03-08T22:41:14.846Z,33.15
2019-03-08T22:44:18.347Z,33.18
2019-03-08T22:47:21.849Z,33.19
2019-03-08T22:50:25.349Z,33.17
2019-03-08T22:53:28.859Z,33.18
2019-03-08T22:56:32.367Z,33.18
2019-03-08T22:59:36.903Z,33.18
2019-03-08T23:02:40.403Z,33.18
2019-03-08T23:05:44.102Z,33.17
2019-03-08T23:08:48.628Z,33.19
2019-03-08T23:11:52.122Z,33.17
2019-03-08T23:14:55.645Z,33.18
2019-03-08T23:17:59.129Z,33.20
2019-03-08T23:21:02.629Z,33.18
2019-03-08T23:24:06.131Z,33.18
2019-03-08T23:27:34.653Z,33.16
2019-03-08T23:30:38.522Z,33.17
2019-03-08T23:33:42.032Z,33.17
2019-03-08T23:36:45.526Z,33.17
2019-03-08T23:39:49.044Z,33.18
2019-03-08T23:42:52.539Z,33.18
2019-03-08T23:45:57.982Z,33.15
2019-03-08T23:49:02.618Z,33.18
2019-03-08T23:52:06.511Z,33.18
2019-03-08T23:55:10.192Z,33.19
2019-03-08T23:58:13.741Z,33.19
